sensor_id;sensor_type;location;lat;lon;timestamp;temperature;humidity
68922;DHT22;55959;51.244;5.724;2023-04-24T00:00:16;13.00;72.70
68922;DHT22;55959;51.244;5.724;2023-04-24T00:02:43;13.00;72.60
68922;DHT22;55959;51.244;5.724;2023-04-24T00:05:15;13.00;72.80
68922;DHT22;55959;51.244;5.724;2023-04-24T00:07:41;13.00;72.40
68922;DHT22;55959;51.244;5.724;2023-04-24T00:10:08;13.00;72.40
68922;DHT22;55959;51.244;5.724;2023-04-24T00:12:34;12.90;72.60
68922;DHT22;55959;51.244;5.724;2023-04-24T00:15:00;12.90;72.60
68922;DHT22;55959;51.244;5.724;2023-04-24T00:17:26;12.90;72.70
68922;DHT22;55959;51.244;5.724;2023-04-24T00:19:52;12.90;72.70
68922;DHT22;55959;51.244;5.724;2023-04-24T00:22:24;12.90;72.50
68922;DHT22;55959;51.244;5.724;2023-04-24T00:24:51;12.90;72.50
68922;DHT22;55959;51.244;5.724;2023-04-24T00:27:16;12.90;72.40
68922;DHT22;55959;51.244;5.724;2023-04-24T00:29:42;12.90;72.40
68922;DHT22;55959;51.244;5.724;2023-04-24T00:32:08;12.80;73.20
68922;DHT22;55959;51.244;5.724;2023-04-24T00:34:33;12.80;72.30
68922;DHT22;55959;51.244;5.724;2023-04-24T00:36:59;12.80;72.30
68922;DHT22;55959;51.244;5.724;2023-04-24T00:39:25;12.80;72.30
68922;DHT22;55959;51.244;5.724;2023-04-24T00:41:51;12.70;72.40
68922;DHT22;55959;51.244;5.724;2023-04-24T00:44:17;12.80;72.30
68922;DHT22;55959;51.244;5.724;2023-04-24T00:46:43;12.80;72.50
68922;DHT22;55959;51.244;5.724;2023-04-24T00:49:09;12.80;72.50
68922;DHT22;55959;51.244;5.724;2023-04-24T00:51:36;12.80;72.50
68922;DHT22;55959;51.244;5.724;2023-04-24T00:54:02;12.80;72.40
68922;DHT22;55959;51.244;5.724;2023-04-24T00:56:28;12.70;72.50
68922;DHT22;55959;51.244;5.724;2023-04-24T00:58:55;12.70;72.60
68922;DHT22;55959;51.244;5.724;2023-04-24T01:01:22;12.70;72.50
68922;DHT22;55959;51.244;5.724;2023-04-24T01:03:49;12.70;72.60
68922;DHT22;55959;51.244;5.724;2023-04-24T01:06:16;12.70;72.70
68922;DHT22;55959;51.244;5.724;2023-04-24T01:08:46;12.70;72.80
68922;DHT22;55959;51.244;5.724;2023-04-24T01:11:13;12.70;73.70
68922;DHT22;55959;51.244;5.724;2023-04-24T01:13:39;12.70;72.90
68922;DHT22;55959;51.244;5.724;2023-04-24T01:16:06;12.70;73.00
68922;DHT22;55959;51.244;5.724;2023-04-24T01:18:32;12.70;73.10
68922;DHT22;55959;51.244;5.724;2023-04-24T01:20:59;12.70;73.10
68922;DHT22;55959;51.244;5.724;2023-04-24T01:23:26;12.70;73.30
68922;DHT22;55959;51.244;5.724;2023-04-24T01:25:52;12.70;73.30
68922;DHT22;55959;51.244;5.724;2023-04-24T01:28:18;12.60;73.30
68922;DHT22;55959;51.244;5.724;2023-04-24T01:30:44;12.70;73.30
68922;DHT22;55959;51.244;5.724;2023-04-24T01:33:10;12.60;73.20
68922;DHT22;55959;51.244;5.724;2023-04-24T01:35:37;12.60;73.30
68922;DHT22;55959;51.244;5.724;2023-04-24T01:38:03;12.60;73.40
68922;DHT22;55959;51.244;5.724;2023-04-24T01:40:31;12.60;73.50
68922;DHT22;55959;51.244;5.724;2023-04-24T01:42:58;12.60;73.60
68922;DHT22;55959;51.244;5.724;2023-04-24T01:45:24;12.60;73.60
68922;DHT22;55959;51.244;5.724;2023-04-24T01:47:50;12.50;73.70
68922;DHT22;55959;51.244;5.724;2023-04-24T01:50:16;12.50;73.90
68922;DHT22;55959;51.244;5.724;2023-04-24T01:52:42;12.60;73.90
68922;DHT22;55959;51.244;5.724;2023-04-24T01:55:08;12.60;74.00
68922;DHT22;55959;51.244;5.724;2023-04-24T01:57:35;12.60;73.90
68922;DHT22;55959;51.244;5.724;2023-04-24T02:00:01;12.60;73.90
68922;DHT22;55959;51.244;5.724;2023-04-24T02:02:29;12.60;73.90
68922;DHT22;55959;51.244;5.724;2023-04-24T02:04:56;12.60;73.90
68922;DHT22;55959;51.244;5.724;2023-04-24T02:07:22;12.60;73.80
68922;DHT22;55959;51.244;5.724;2023-04-24T02:09:48;12.60;73.70
68922;DHT22;55959;51.244;5.724;2023-04-24T02:12:15;12.60;73.70
68922;DHT22;55959;51.244;5.724;2023-04-24T02:14:42;12.60;73.70
68922;DHT22;55959;51.244;5.724;2023-04-24T02:17:09;12.60;73.70
68922;DHT22;55959;51.244;5.724;2023-04-24T02:19:35;12.60;73.70
68922;DHT22;55959;51.244;5.724;2023-04-24T02:22:01;12.60;73.90
68922;DHT22;55959;51.244;5.724;2023-04-24T02:24:26;12.50;73.70
68922;DHT22;55959;51.244;5.724;2023-04-24T02:26:52;12.60;73.90
68922;DHT22;55959;51.244;5.724;2023-04-24T02:29:18;12.60;74.80
68922;DHT22;55959;51.244;5.724;2023-04-24T02:31:43;12.60;73.90
68922;DHT22;55959;51.244;5.724;2023-04-24T02:34:09;12.60;73.90
68922;DHT22;55959;51.244;5.724;2023-04-24T02:36:35;12.60;73.90
68922;DHT22;55959;51.244;5.724;2023-04-24T02:39:01;12.60;73.90
68922;DHT22;55959;51.244;5.724;2023-04-24T02:41:27;12.50;73.70
68922;DHT22;55959;51.244;5.724;2023-04-24T02:43:57;12.50;73.80
68922;DHT22;55959;51.244;5.724;2023-04-24T02:46:23;12.50;73.80
68922;DHT22;55959;51.244;5.724;2023-04-24T02:48:49;12.60;73.70
68922;DHT22;55959;51.244;5.724;2023-04-24T02:51:15;12.50;73.60
68922;DHT22;55959;51.244;5.724;2023-04-24T02:53:41;12.50;73.70
68922;DHT22;55959;51.244;5.724;2023-04-24T02:56:07;12.50;73.50
68922;DHT22;55959;51.244;5.724;2023-04-24T02:58:32;12.50;73.60
68922;DHT22;55959;51.244;5.724;2023-04-24T03:00:58;12.50;73.60
68922;DHT22;55959;51.244;5.724;2023-04-24T03:03:24;12.50;73.60
68922;DHT22;55959;51.244;5.724;2023-04-24T03:05:50;12.50;73.60
68922;DHT22;55959;51.244;5.724;2023-04-24T03:08:16;12.50;73.60
68922;DHT22;55959;51.244;5.724;2023-04-24T03:10:42;12.50;73.50
68922;DHT22;55959;51.244;5.724;2023-04-24T03:13:07;12.60;73.50
68922;DHT22;55959;51.244;5.724;2023-04-24T03:15:33;12.60;73.50
68922;DHT22;55959;51.244;5.724;2023-04-24T03:17:59;12.60;73.50
68922;DHT22;55959;51.244;5.724;2023-04-24T03:20:26;12.50;73.50
68922;DHT22;55959;51.244;5.724;2023-04-24T03:22:51;12.50;73.50
68922;DHT22;55959;51.244;5.724;2023-04-24T03:25:17;12.60;73.50
68922;DHT22;55959;51.244;5.724;2023-04-24T03:27:43;12.50;73.40
68922;DHT22;55959;51.244;5.724;2023-04-24T03:30:09;12.60;73.40
68922;DHT22;55959;51.244;5.724;2023-04-24T03:32:35;12.60;73.20
68922;DHT22;55959;51.244;5.724;2023-04-24T03:35:01;12.50;73.00
68922;DHT22;55959;51.244;5.724;2023-04-24T03:37:27;12.50;73.00
68922;DHT22;55959;51.244;5.724;2023-04-24T03:39:53;12.50;73.20
68922;DHT22;55959;51.244;5.724;2023-04-24T03:42:19;12.40;73.30
68922;DHT22;55959;51.244;5.724;2023-04-24T03:44:44;12.40;73.30
68922;DHT22;55959;51.244;5.724;2023-04-24T03:47:10;12.40;73.30
68922;DHT22;55959;51.244;5.724;2023-04-24T03:49:36;12.30;73.30
68922;DHT22;55959;51.244;5.724;2023-04-24T03:52:02;12.30;73.40
68922;DHT22;55959;51.244;5.724;2023-04-24T03:54:27;12.30;73.50
68922;DHT22;55959;51.244;5.724;2023-04-24T03:56:53;12.20;73.70
68922;DHT22;55959;51.244;5.724;2023-04-24T03:59:19;12.20;73.90
68922;DHT22;55959;51.244;5.724;2023-04-24T04:01:45;12.20;74.10
68922;DHT22;55959;51.244;5.724;2023-04-24T04:04:11;12.10;74.60
68922;DHT22;55959;51.244;5.724;2023-04-24T04:06:37;12.10;74.90
68922;DHT22;55959;51.244;5.724;2023-04-24T04:09:03;12.10;75.30
68922;DHT22;55959;51.244;5.724;2023-04-24T04:11:29;12.10;75.50
68922;DHT22;55959;51.244;5.724;2023-04-24T04:13:56;12.10;75.70
68922;DHT22;55959;51.244;5.724;2023-04-24T04:16:23;12.00;75.80
68922;DHT22;55959;51.244;5.724;2023-04-24T04:18:49;12.00;75.80
68922;DHT22;55959;51.244;5.724;2023-04-24T04:21:15;12.00;75.90
68922;DHT22;55959;51.244;5.724;2023-04-24T04:23:41;12.00;75.90
68922;DHT22;55959;51.244;5.724;2023-04-24T04:26:07;12.00;75.90
68922;DHT22;55959;51.244;5.724;2023-04-24T04:28:33;12.00;75.90
68922;DHT22;55959;51.244;5.724;2023-04-24T04:31:00;12.00;75.90
68922;DHT22;55959;51.244;5.724;2023-04-24T04:33:26;12.00;75.90
68922;DHT22;55959;51.244;5.724;2023-04-24T04:35:52;11.90;75.90
68922;DHT22;55959;51.244;5.724;2023-04-24T04:38:18;11.90;76.10
68922;DHT22;55959;51.244;5.724;2023-04-24T04:40:45;11.90;76.30
68922;DHT22;55959;51.244;5.724;2023-04-24T04:43:12;11.90;76.60
68922;DHT22;55959;51.244;5.724;2023-04-24T04:45:41;11.90;76.90
68922;DHT22;55959;51.244;5.724;2023-04-24T04:48:09;11.90;77.00
68922;DHT22;55959;51.244;5.724;2023-04-24T04:50:38;11.90;77.20
68922;DHT22;55959;51.244;5.724;2023-04-24T04:53:04;11.90;77.30
68922;DHT22;55959;51.244;5.724;2023-04-24T04:55:30;11.90;77.50
68922;DHT22;55959;51.244;5.724;2023-04-24T04:57:56;11.80;77.80
68922;DHT22;55959;51.244;5.724;2023-04-24T05:00:23;11.80;77.80
68922;DHT22;55959;51.244;5.724;2023-04-24T05:02:51;11.80;78.10
68922;DHT22;55959;51.244;5.724;2023-04-24T05:05:17;11.80;78.20
68922;DHT22;55959;51.244;5.724;2023-04-24T05:07:43;11.80;78.30
68922;DHT22;55959;51.244;5.724;2023-04-24T05:10:10;11.80;78.70
68922;DHT22;55959;51.244;5.724;2023-04-24T05:12:36;11.70;78.90
68922;DHT22;55959;51.244;5.724;2023-04-24T05:15:02;11.70;79.10
68922;DHT22;55959;51.244;5.724;2023-04-24T05:17:28;11.70;79.20
68922;DHT22;55959;51.244;5.724;2023-04-24T05:19:54;11.60;79.30
68922;DHT22;55959;51.244;5.724;2023-04-24T05:22:20;11.60;79.40
68922;DHT22;55959;51.244;5.724;2023-04-24T05:24:47;11.60;79.30
68922;DHT22;55959;51.244;5.724;2023-04-24T05:27:13;11.60;79.40
68922;DHT22;55959;51.244;5.724;2023-04-24T05:29:39;11.60;79.50
68922;DHT22;55959;51.244;5.724;2023-04-24T05:32:05;11.60;79.70
68922;DHT22;55959;51.244;5.724;2023-04-24T05:34:31;11.60;79.80
68922;DHT22;55959;51.244;5.724;2023-04-24T05:36:57;11.50;79.90
68922;DHT22;55959;51.244;5.724;2023-04-24T05:39:24;11.50;80.00
68922;DHT22;55959;51.244;5.724;2023-04-24T05:41:50;11.50;80.00
68922;DHT22;55959;51.244;5.724;2023-04-24T05:44:16;11.50;80.70
68922;DHT22;55959;51.244;5.724;2023-04-24T05:46:42;11.60;79.90
68922;DHT22;55959;51.244;5.724;2023-04-24T05:49:09;11.50;79.80
68922;DHT22;55959;51.244;5.724;2023-04-24T05:51:34;11.50;79.70
68922;DHT22;55959;51.244;5.724;2023-04-24T05:54:00;11.60;79.70
68922;DHT22;55959;51.244;5.724;2023-04-24T05:56:28;11.60;79.70
68922;DHT22;55959;51.244;5.724;2023-04-24T05:58:53;11.60;79.70
68922;DHT22;55959;51.244;5.724;2023-04-24T06:01:19;11.60;79.50
68922;DHT22;55959;51.244;5.724;2023-04-24T06:03:47;11.60;79.30
68922;DHT22;55959;51.244;5.724;2023-04-24T06:06:12;11.60;79.10
68922;DHT22;55959;51.244;5.724;2023-04-24T06:08:38;11.60;79.10
68922;DHT22;55959;51.244;5.724;2023-04-24T06:11:04;11.70;78.90
68922;DHT22;55959;51.244;5.724;2023-04-24T06:13:30;11.70;78.70
68922;DHT22;55959;51.244;5.724;2023-04-24T06:15:56;11.70;78.40
68922;DHT22;55959;51.244;5.724;2023-04-24T06:18:21;11.70;78.10
68922;DHT22;55959;51.244;5.724;2023-04-24T06:20:47;11.70;77.90
68922;DHT22;55959;51.244;5.724;2023-04-24T06:23:13;11.70;77.40
68922;DHT22;55959;51.244;5.724;2023-04-24T06:25:39;11.70;77.10
68922;DHT22;55959;51.244;5.724;2023-04-24T06:28:05;11.60;77.10
68922;DHT22;55959;51.244;5.724;2023-04-24T06:30:31;11.60;77.10
68922;DHT22;55959;51.244;5.724;2023-04-24T06:32:56;11.50;77.20
68922;DHT22;55959;51.244;5.724;2023-04-24T06:35:22;11.50;77.30
68922;DHT22;55959;51.244;5.724;2023-04-24T06:37:48;11.50;77.40
68922;DHT22;55959;51.244;5.724;2023-04-24T06:40:14;11.50;77.50
68922;DHT22;55959;51.244;5.724;2023-04-24T06:42:40;11.50;77.50
68922;DHT22;55959;51.244;5.724;2023-04-24T06:45:06;11.50;77.70
68922;DHT22;55959;51.244;5.724;2023-04-24T06:47:32;11.40;77.70
68922;DHT22;55959;51.244;5.724;2023-04-24T06:49:58;11.40;77.80
68922;DHT22;55959;51.244;5.724;2023-04-24T06:52:24;11.40;77.90
68922;DHT22;55959;51.244;5.724;2023-04-24T06:54:50;11.40;78.10
68922;DHT22;55959;51.244;5.724;2023-04-24T06:57:16;11.40;78.30
68922;DHT22;55959;51.244;5.724;2023-04-24T06:59:42;11.40;78.40
68922;DHT22;55959;51.244;5.724;2023-04-24T07:02:08;11.30;78.40
68922;DHT22;55959;51.244;5.724;2023-04-24T07:04:34;11.30;78.50
68922;DHT22;55959;51.244;5.724;2023-04-24T07:07:00;11.30;78.70
68922;DHT22;55959;51.244;5.724;2023-04-24T07:09:27;11.30;78.70
68922;DHT22;55959;51.244;5.724;2023-04-24T07:11:54;11.30;78.90
68922;DHT22;55959;51.244;5.724;2023-04-24T07:14:21;11.30;79.00
68922;DHT22;55959;51.244;5.724;2023-04-24T07:16:48;11.30;79.10
68922;DHT22;55959;51.244;5.724;2023-04-24T07:19:13;11.30;79.30
68922;DHT22;55959;51.244;5.724;2023-04-24T07:21:41;11.30;79.30
68922;DHT22;55959;51.244;5.724;2023-04-24T07:24:07;11.30;79.40
68922;DHT22;55959;51.244;5.724;2023-04-24T07:26:37;11.30;79.40
68922;DHT22;55959;51.244;5.724;2023-04-24T07:29:04;11.30;79.50
68922;DHT22;55959;51.244;5.724;2023-04-24T07:31:30;11.30;79.50
68922;DHT22;55959;51.244;5.724;2023-04-24T07:33:56;11.40;79.70
68922;DHT22;55959;51.244;5.724;2023-04-24T07:36:23;11.40;79.60
68922;DHT22;55959;51.244;5.724;2023-04-24T07:38:51;11.40;79.70
68922;DHT22;55959;51.244;5.724;2023-04-24T07:41:20;11.40;80.50
68922;DHT22;55959;51.244;5.724;2023-04-24T07:43:46;11.40;79.70
68922;DHT22;55959;51.244;5.724;2023-04-24T07:46:12;11.40;79.70
68922;DHT22;55959;51.244;5.724;2023-04-24T07:48:38;11.40;80.60
68922;DHT22;55959;51.244;5.724;2023-04-24T07:51:03;11.40;79.80
68922;DHT22;55959;51.244;5.724;2023-04-24T07:53:29;11.50;79.60
68922;DHT22;55959;51.244;5.724;2023-04-24T07:55:56;11.50;79.60
68922;DHT22;55959;51.244;5.724;2023-04-24T07:58:23;11.40;79.20
68922;DHT22;55959;51.244;5.724;2023-04-24T08:00:49;11.40;78.90
68922;DHT22;55959;51.244;5.724;2023-04-24T08:03:14;11.40;79.00
68922;DHT22;55959;51.244;5.724;2023-04-24T08:05:43;11.40;78.70
68922;DHT22;55959;51.244;5.724;2023-04-24T08:08:09;11.40;78.70
68922;DHT22;55959;51.244;5.724;2023-04-24T08:10:35;11.30;78.50
68922;DHT22;55959;51.244;5.724;2023-04-24T08:13:00;11.30;78.70
68922;DHT22;55959;51.244;5.724;2023-04-24T08:15:27;11.30;78.90
68922;DHT22;55959;51.244;5.724;2023-04-24T08:17:53;11.30;79.10
68922;DHT22;55959;51.244;5.724;2023-04-24T08:20:19;11.30;79.30
68922;DHT22;55959;51.244;5.724;2023-04-24T08:22:44;11.40;79.50
68922;DHT22;55959;51.244;5.724;2023-04-24T08:25:13;11.40;79.70
68922;DHT22;55959;51.244;5.724;2023-04-24T08:27:38;11.40;79.70
68922;DHT22;55959;51.244;5.724;2023-04-24T08:30:05;11.40;79.90
68922;DHT22;55959;51.244;5.724;2023-04-24T08:32:31;11.40;79.90
68922;DHT22;55959;51.244;5.724;2023-04-24T08:34:59;11.50;80.00
68922;DHT22;55959;51.244;5.724;2023-04-24T08:37:26;11.60;80.20
68922;DHT22;55959;51.244;5.724;2023-04-24T08:39:53;11.60;80.30
68922;DHT22;55959;51.244;5.724;2023-04-24T08:42:19;11.60;80.40
68922;DHT22;55959;51.244;5.724;2023-04-24T08:44:47;11.70;80.50
68922;DHT22;55959;51.244;5.724;2023-04-24T08:47:15;11.70;80.60
68922;DHT22;55959;51.244;5.724;2023-04-24T08:49:41;11.70;80.60
68922;DHT22;55959;51.244;5.724;2023-04-24T08:52:08;11.80;80.50
68922;DHT22;55959;51.244;5.724;2023-04-24T08:54:35;11.80;80.10
68922;DHT22;55959;51.244;5.724;2023-04-24T08:57:02;11.80;80.10
68922;DHT22;55959;51.244;5.724;2023-04-24T08:59:30;11.90;80.10
68922;DHT22;55959;51.244;5.724;2023-04-24T09:01:57;11.90;79.90
68922;DHT22;55959;51.244;5.724;2023-04-24T09:04:24;11.90;79.90
68922;DHT22;55959;51.244;5.724;2023-04-24T09:06:58;12.00;80.00
68922;DHT22;55959;51.244;5.724;2023-04-24T09:09:25;12.00;79.90
68922;DHT22;55959;51.244;5.724;2023-04-24T09:11:52;12.10;79.70
68922;DHT22;55959;51.244;5.724;2023-04-24T09:14:21;12.10;79.50
68922;DHT22;55959;51.244;5.724;2023-04-24T09:16:47;12.10;79.30
68922;DHT22;55959;51.244;5.724;2023-04-24T09:19:13;12.20;79.40
68922;DHT22;55959;51.244;5.724;2023-04-24T09:21:39;12.20;79.20
68922;DHT22;55959;51.244;5.724;2023-04-24T09:24:14;12.20;78.70
68922;DHT22;55959;51.244;5.724;2023-04-24T09:26:43;12.30;78.50
68922;DHT22;55959;51.244;5.724;2023-04-24T09:29:17;12.30;78.30
68922;DHT22;55959;51.244;5.724;2023-04-24T09:31:44;12.30;78.50
68922;DHT22;55959;51.244;5.724;2023-04-24T09:34:11;12.30;77.70
68922;DHT22;55959;51.244;5.724;2023-04-24T09:36:39;12.30;77.40
68922;DHT22;55959;51.244;5.724;2023-04-24T09:39:10;12.30;77.70
68922;DHT22;55959;51.244;5.724;2023-04-24T09:41:54;12.30;77.10
68922;DHT22;55959;51.244;5.724;2023-04-24T09:44:26;12.20;77.10
68922;DHT22;55959;51.244;5.724;2023-04-24T09:46:56;12.20;76.90
68922;DHT22;55959;51.244;5.724;2023-04-24T09:49:27;12.20;76.50
68922;DHT22;55959;51.244;5.724;2023-04-24T09:52:09;12.30;76.70
68922;DHT22;55959;51.244;5.724;2023-04-24T09:54:35;12.20;76.30
68922;DHT22;55959;51.244;5.724;2023-04-24T09:57:02;12.20;76.20
68922;DHT22;55959;51.244;5.724;2023-04-24T09:59:28;12.20;76.80
68922;DHT22;55959;51.244;5.724;2023-04-24T10:01:56;12.20;76.80
68922;DHT22;55959;51.244;5.724;2023-04-24T10:04:25;12.30;76.90
68922;DHT22;55959;51.244;5.724;2023-04-24T10:06:54;12.30;76.90
68922;DHT22;55959;51.244;5.724;2023-04-24T10:09:23;12.30;77.00
68922;DHT22;55959;51.244;5.724;2023-04-24T10:11:51;12.40;76.70
68922;DHT22;55959;51.244;5.724;2023-04-24T10:14:23;12.40;76.40
68922;DHT22;55959;51.244;5.724;2023-04-24T10:16:52;12.50;76.10
68922;DHT22;55959;51.244;5.724;2023-04-24T10:19:19;12.50;75.80
68922;DHT22;55959;51.244;5.724;2023-04-24T10:21:45;12.50;75.50
68922;DHT22;55959;51.244;5.724;2023-04-24T10:24:16;12.50;75.50
68922;DHT22;55959;51.244;5.724;2023-04-24T10:26:43;12.60;75.50
68922;DHT22;55959;51.244;5.724;2023-04-24T10:29:11;12.60;74.10
68922;DHT22;55959;51.244;5.724;2023-04-24T10:31:38;12.70;73.90
68922;DHT22;55959;51.244;5.724;2023-04-24T10:34:06;12.70;72.80
68922;DHT22;55959;51.244;5.724;2023-04-24T10:36:41;12.70;72.60
68922;DHT22;55959;51.244;5.724;2023-04-24T10:39:12;12.70;72.30
68922;DHT22;55959;51.244;5.724;2023-04-24T10:41:40;12.70;72.30
68922;DHT22;55959;51.244;5.724;2023-04-24T10:44:10;12.70;73.00
68922;DHT22;55959;51.244;5.724;2023-04-24T10:46:43;12.80;72.30
68922;DHT22;55959;51.244;5.724;2023-04-24T10:49:10;12.80;71.90
68922;DHT22;55959;51.244;5.724;2023-04-24T10:51:50;12.90;72.60
68922;DHT22;55959;51.244;5.724;2023-04-24T10:57:27;13.00;71.20
68922;DHT22;55959;51.244;5.724;2023-04-24T11:02:41;13.00;70.70
68922;DHT22;55959;51.244;5.724;2023-04-24T11:05:15;13.10;70.00
68922;DHT22;55959;51.244;5.724;2023-04-24T11:08:15;13.10;68.30
68922;DHT22;55959;51.244;5.724;2023-04-24T11:16:34;13.20;64.20
68922;DHT22;55959;51.244;5.724;2023-04-24T11:19:27;13.20;62.50
68922;DHT22;55959;51.244;5.724;2023-04-24T11:21:56;13.10;62.20
68922;DHT22;55959;51.244;5.724;2023-04-24T11:24:49;13.10;63.60
68922;DHT22;55959;51.244;5.724;2023-04-24T11:27:21;13.10;64.30
68922;DHT22;55959;51.244;5.724;2023-04-24T11:32:38;13.10;64.20
68922;DHT22;55959;51.244;5.724;2023-04-24T11:35:19;13.10;63.20
68922;DHT22;55959;51.244;5.724;2023-04-24T11:37:51;13.20;64.10
68922;DHT22;55959;51.244;5.724;2023-04-24T11:40:19;13.20;63.40
68922;DHT22;55959;51.244;5.724;2023-04-24T11:42:49;13.30;64.50
68922;DHT22;55959;51.244;5.724;2023-04-24T11:45:22;13.30;63.20
68922;DHT22;55959;51.244;5.724;2023-04-24T11:47:49;13.40;61.70
68922;DHT22;55959;51.244;5.724;2023-04-24T11:50:17;13.30;61.60
68922;DHT22;55959;51.244;5.724;2023-04-24T11:52:46;13.30;62.70
68922;DHT22;55959;51.244;5.724;2023-04-24T11:57:50;13.30;61.20
68922;DHT22;55959;51.244;5.724;2023-04-24T12:00:19;13.30;62.20
68922;DHT22;55959;51.244;5.724;2023-04-24T12:02:49;13.30;62.00
68922;DHT22;55959;51.244;5.724;2023-04-24T12:05:26;13.30;61.60
68922;DHT22;55959;51.244;5.724;2023-04-24T12:07:53;13.20;62.20
68922;DHT22;55959;51.244;5.724;2023-04-24T12:10:21;13.20;62.00
68922;DHT22;55959;51.244;5.724;2023-04-24T12:12:48;13.20;61.60
68922;DHT22;55959;51.244;5.724;2023-04-24T12:15:16;13.20;62.50
68922;DHT22;55959;51.244;5.724;2023-04-24T12:17:43;13.20;63.30
68922;DHT22;55959;51.244;5.724;2023-04-24T12:20:09;13.20;62.80
68922;DHT22;55959;51.244;5.724;2023-04-24T12:22:52;13.20;63.20
68922;DHT22;55959;51.244;5.724;2023-04-24T12:25:21;13.20;63.60
68922;DHT22;55959;51.244;5.724;2023-04-24T12:27:53;13.20;64.10
68922;DHT22;55959;51.244;5.724;2023-04-24T12:30:20;13.30;63.20
68922;DHT22;55959;51.244;5.724;2023-04-24T12:32:51;13.30;63.10
68922;DHT22;55959;51.244;5.724;2023-04-24T12:35:21;13.30;63.40
68922;DHT22;55959;51.244;5.724;2023-04-24T12:37:49;13.30;63.30
68922;DHT22;55959;51.244;5.724;2023-04-24T12:40:18;13.30;63.40
68922;DHT22;55959;51.244;5.724;2023-04-24T12:42:48;13.30;64.10
68922;DHT22;55959;51.244;5.724;2023-04-24T12:45:15;13.30;63.10
68922;DHT22;55959;51.244;5.724;2023-04-24T12:47:44;13.30;63.50
68922;DHT22;55959;51.244;5.724;2023-04-24T12:50:12;13.30;62.60
68922;DHT22;55959;51.244;5.724;2023-04-24T12:52:39;13.30;62.80
68922;DHT22;55959;51.244;5.724;2023-04-24T12:55:06;13.30;62.40
68922;DHT22;55959;51.244;5.724;2023-04-24T12:57:38;13.30;62.90
68922;DHT22;55959;51.244;5.724;2023-04-24T13:00:05;13.30;63.40
68922;DHT22;55959;51.244;5.724;2023-04-24T13:02:33;13.30;63.00
68922;DHT22;55959;51.244;5.724;2023-04-24T13:04:59;13.30;61.60
68922;DHT22;55959;51.244;5.724;2023-04-24T13:07:25;13.30;62.00
68922;DHT22;55959;51.244;5.724;2023-04-24T13:09:53;13.30;63.00
68922;DHT22;55959;51.244;5.724;2023-04-24T13:12:20;13.30;63.70
68922;DHT22;55959;51.244;5.724;2023-04-24T13:14:46;13.40;63.60
68922;DHT22;55959;51.244;5.724;2023-04-24T13:17:12;13.40;61.80
68922;DHT22;55959;51.244;5.724;2023-04-24T13:19:40;13.40;61.70
68922;DHT22;55959;51.244;5.724;2023-04-24T13:22:08;13.40;61.20
68922;DHT22;55959;51.244;5.724;2023-04-24T13:24:37;13.40;61.70
68922;DHT22;55959;51.244;5.724;2023-04-24T13:27:03;13.40;61.70
68922;DHT22;55959;51.244;5.724;2023-04-24T13:29:29;13.40;62.00
68922;DHT22;55959;51.244;5.724;2023-04-24T13:31:55;13.40;62.80
68922;DHT22;55959;51.244;5.724;2023-04-24T13:34:25;13.40;63.50
68922;DHT22;55959;51.244;5.724;2023-04-24T13:36:53;13.50;63.40
68922;DHT22;55959;51.244;5.724;2023-04-24T13:39:21;13.60;63.70
68922;DHT22;55959;51.244;5.724;2023-04-24T13:41:47;13.60;62.60
68922;DHT22;55959;51.244;5.724;2023-04-24T13:44:14;13.70;62.00
68922;DHT22;55959;51.244;5.724;2023-04-24T13:46:41;13.70;62.60
68922;DHT22;55959;51.244;5.724;2023-04-24T13:49:07;13.80;61.80
68922;DHT22;55959;51.244;5.724;2023-04-24T13:51:33;13.90;61.10
68922;DHT22;55959;51.244;5.724;2023-04-24T13:53:59;13.90;60.00
68922;DHT22;55959;51.244;5.724;2023-04-24T13:56:26;14.00;60.90
68922;DHT22;55959;51.244;5.724;2023-04-24T13:58:52;14.00;60.90
68922;DHT22;55959;51.244;5.724;2023-04-24T14:01:19;14.10;61.10
68922;DHT22;55959;51.244;5.724;2023-04-24T14:03:46;14.20;60.40
68922;DHT22;55959;51.244;5.724;2023-04-24T14:06:12;14.30;61.00
68922;DHT22;55959;51.244;5.724;2023-04-24T14:08:39;14.30;58.40
68922;DHT22;55959;51.244;5.724;2023-04-24T14:11:04;14.30;59.30
68922;DHT22;55959;51.244;5.724;2023-04-24T14:13:30;14.40;59.20
68922;DHT22;55959;51.244;5.724;2023-04-24T14:15:56;14.40;58.70
68922;DHT22;55959;51.244;5.724;2023-04-24T14:18:23;14.50;59.10
68922;DHT22;55959;51.244;5.724;2023-04-24T14:20:48;14.60;58.10
68922;DHT22;55959;51.244;5.724;2023-04-24T14:23:15;14.50;57.70
68922;DHT22;55959;51.244;5.724;2023-04-24T14:25:41;14.50;56.80
68922;DHT22;55959;51.244;5.724;2023-04-24T14:28:07;14.50;56.90
68922;DHT22;55959;51.244;5.724;2023-04-24T14:30:33;14.50;56.70
68922;DHT22;55959;51.244;5.724;2023-04-24T14:32:58;14.50;56.60
68922;DHT22;55959;51.244;5.724;2023-04-24T14:35:24;14.40;56.70
68922;DHT22;55959;51.244;5.724;2023-04-24T14:37:51;14.40;57.70
68922;DHT22;55959;51.244;5.724;2023-04-24T14:40:16;14.40;58.30
68922;DHT22;55959;51.244;5.724;2023-04-24T14:42:42;14.40;58.70
68922;DHT22;55959;51.244;5.724;2023-04-24T14:45:08;14.40;57.80
68922;DHT22;55959;51.244;5.724;2023-04-24T14:47:35;14.50;58.60
68922;DHT22;55959;51.244;5.724;2023-04-24T14:50:02;14.50;59.10
68922;DHT22;55959;51.244;5.724;2023-04-24T14:52:28;14.60;58.80
68922;DHT22;55959;51.244;5.724;2023-04-24T14:54:53;14.60;59.50
68922;DHT22;55959;51.244;5.724;2023-04-24T14:57:20;14.60;58.40
68922;DHT22;55959;51.244;5.724;2023-04-24T14:59:45;14.70;58.60
68922;DHT22;55959;51.244;5.724;2023-04-24T15:02:11;14.80;58.70
68922;DHT22;55959;51.244;5.724;2023-04-24T15:04:37;14.80;56.50
68922;DHT22;55959;51.244;5.724;2023-04-24T15:07:02;14.80;56.50
68922;DHT22;55959;51.244;5.724;2023-04-24T15:09:28;14.90;57.00
68922;DHT22;55959;51.244;5.724;2023-04-24T15:12:22;14.90;57.90
68922;DHT22;55959;51.244;5.724;2023-04-24T15:14:48;15.00;58.10
68922;DHT22;55959;51.244;5.724;2023-04-24T15:17:13;15.10;57.70
68922;DHT22;55959;51.244;5.724;2023-04-24T15:19:39;15.10;56.80
68922;DHT22;55959;51.244;5.724;2023-04-24T15:22:05;15.10;57.30
68922;DHT22;55959;51.244;5.724;2023-04-24T15:24:31;15.20;56.10
68922;DHT22;55959;51.244;5.724;2023-04-24T15:26:57;15.20;56.80
68922;DHT22;55959;51.244;5.724;2023-04-24T15:29:24;15.30;57.80
68922;DHT22;55959;51.244;5.724;2023-04-24T15:31:50;15.30;57.80
68922;DHT22;55959;51.244;5.724;2023-04-24T15:34:16;15.30;57.70
68922;DHT22;55959;51.244;5.724;2023-04-24T15:36:42;15.30;57.90
68922;DHT22;55959;51.244;5.724;2023-04-24T15:39:09;15.40;58.20
68922;DHT22;55959;51.244;5.724;2023-04-24T15:41:35;15.40;57.40
68922;DHT22;55959;51.244;5.724;2023-04-24T15:44:01;15.40;57.10
68922;DHT22;55959;51.244;5.724;2023-04-24T15:46:26;15.40;55.80